Time;durP1;ratioP1;P1;durP2;ratioP2;P2;SDS_P1;SDS_P2;PMS_P1;PMS_P2;Temp;Humidity;BMP_temperature;BMP_pressure;BME280_temperature;BME280_humidity;BME280_pressure;Samples;Min_cycle;Max_cycle;Signal;HPM_P1;HPM_P2
2023/03/06 00:02:20;;;;;;;0.20;0.20;;;;;;;9.91;93.20;99848.06;5039420;28;20036;-68
2023/03/06 00:04:46;;;;;;;0.20;0.20;;;;;;;9.76;93.70;99858.06;5039928;28;20029;-66
2023/03/06 00:07:11;;;;;;;0.20;0.20;;;;;;;9.75;94.04;99864.81;5040011;28;20021;-66
2023/03/06 00:09:37;;;;;;;0.20;0.20;;;;;;;9.76;93.85;99869.19;5038994;28;20479;-65
2023/03/06 00:12:03;;;;;;;0.20;0.20;;;;;;;9.82;94.03;99878.84;5055492;28;20036;-65
2023/03/06 00:14:30;;;;;;;0.20;0.20;;;;;;;9.78;93.08;99877.16;5037166;28;20025;-65
2023/03/06 00:16:56;;;;;;;0.20;0.20;;;;;;;9.66;93.52;99878.09;5037124;28;20460;-65
2023/03/06 00:19:22;;;;;;;0.20;0.20;;;;;;;9.77;92.39;99879.13;5037807;28;20025;-65
2023/03/06 00:21:48;;;;;;;0.20;0.20;;;;;;;9.80;90.89;99881.19;5036990;28;20032;-65
2023/03/06 00:24:13;;;;;;;0.20;0.20;;;;;;;9.78;89.72;99875.19;5037359;28;20033;-65
2023/03/06 00:26:40;;;;;;;0.20;0.20;;;;;;;9.69;89.91;99880.13;5037106;28;20170;-65
2023/03/06 00:29:06;;;;;;;0.30;0.30;;;;;;;9.70;87.55;99865.09;5036988;28;20057;-64
2023/03/06 00:31:34;;;;;;;0.30;0.30;;;;;;;9.63;87.06;99870.47;5037525;28;20132;-65
2023/03/06 00:34:00;;;;;;;0.30;0.30;;;;;;;9.59;86.54;99869.63;5037151;28;20021;-65
2023/03/06 00:36:25;;;;;;;0.20;0.20;;;;;;;9.60;85.14;99866.47;5036789;28;20502;-65
2023/03/06 00:38:51;;;;;;;0.20;0.20;;;;;;;9.73;80.97;99869.91;5037104;28;20029;-64
2023/03/06 00:41:16;;;;;;;0.20;0.20;;;;;;;9.75;79.98;99881.47;5037298;28;20053;-64
2023/03/06 00:43:42;;;;;;;0.20;0.20;;;;;;;9.84;79.08;99868.16;5036725;28;20506;-65
2023/03/06 00:46:07;;;;;;;0.25;0.25;;;;;;;9.87;79.65;99873.00;5037203;28;20116;-65
2023/03/06 00:48:33;;;;;;;0.20;0.20;;;;;;;9.73;81.28;99871.88;5036985;28;20476;-65
2023/03/06 00:51:00;;;;;;;0.20;0.20;;;;;;;9.71;82.11;99863.91;5037493;28;20032;-65
2023/03/06 00:53:25;;;;;;;0.30;0.30;;;;;;;9.64;83.17;99863.75;5036437;28;20475;-65
2023/03/06 00:55:52;;;;;;;0.20;0.20;;;;;;;9.91;81.25;99865.53;5036985;28;20059;-65
2023/03/06 00:58:17;;;;;;;0.20;0.20;;;;;;;9.70;81.50;99856.75;5054042;28;20403;-65
2023/03/06 01:00:44;;;;;;;0.20;0.20;;;;;;;9.73;82.04;99866.31;5036701;28;20040;-65
2023/03/06 01:03:09;;;;;;;0.20;0.20;;;;;;;9.69;81.85;99864.28;5036448;28;20058;-65
2023/03/06 01:05:36;;;;;;;0.20;0.20;;;;;;;9.71;81.53;99861.16;5036871;28;20123;-65
2023/03/06 01:08:03;;;;;;;0.20;0.20;;;;;;;9.75;81.65;99856.47;5036881;28;20131;-65
2023/03/06 01:10:29;;;;;;;0.20;0.20;;;;;;;9.69;81.86;99857.91;5053868;28;20537;-65
2023/03/06 01:12:54;;;;;;;0.20;0.20;;;;;;;9.71;82.80;99844.47;5036507;28;20068;-65
2023/03/06 01:15:21;;;;;;;0.20;0.20;;;;;;;9.92;80.49;99844.91;5036156;28;20475;-64
2023/03/06 01:17:46;;;;;;;0.30;0.30;;;;;;;9.75;81.25;99842.59;5036491;28;20106;-65
2023/03/06 01:20:15;;;;;;;0.20;0.20;;;;;;;9.74;81.94;99846.50;5035861;28;20060;-65
2023/03/06 01:22:40;;;;;;;0.20;0.20;;;;;;;9.65;82.04;99851.50;5036632;28;20059;-65
2023/03/06 01:25:06;;;;;;;0.20;0.20;;;;;;;9.61;82.87;99842.28;5036304;28;20554;-65
2023/03/06 01:27:32;;;;;;;0.20;0.20;;;;;;;9.58;83.70;99845.78;5036317;28;20387;-65
2023/03/06 01:29:57;;;;;;;0.20;0.20;;;;;;;9.65;83.27;99837.59;5035881;28;20025;-65
2023/03/06 01:32:23;;;;;;;0.20;0.20;;;;;;;9.62;82.45;99810.53;5036320;28;20037;-65
2023/03/06 01:34:48;;;;;;;0.20;0.20;;;;;;;9.68;81.93;99839.63;5036161;28;20402;-65
2023/03/06 01:37:14;;;;;;;0.20;0.20;;;;;;;9.71;82.23;99850.84;5036215;28;20040;-65
2023/03/06 01:39:40;;;;;;;0.20;0.20;;;;;;;9.86;81.60;99840.03;5036242;28;20166;-65
2023/03/06 01:42:06;;;;;;;0.20;0.20;;;;;;;9.84;81.85;99843.16;5035848;28;20033;-65
2023/03/06 01:44:32;;;;;;;0.20;0.20;;;;;;;9.77;80.88;99826.34;5036372;28;20079;-65
2023/03/06 01:47:01;;;;;;;0.20;0.20;;;;;;;9.91;80.42;99826.63;5035806;28;20033;-65
2023/03/06 01:49:34;;;;;;;0.20;0.20;;;;;;;10.10;78.04;99823.00;5035719;28;20036;-65
2023/03/06 01:52:04;;;;;;;0.20;0.20;;;;;;;10.16;76.71;99820.72;5035843;28;20040;-65
2023/03/06 01:54:33;;;;;;;0.30;0.30;;;;;;;10.22;75.38;99822.84;5035573;28;20032;-65
2023/03/06 01:57:08;;;;;;;0.20;0.20;;;;;;;10.26;74.22;99825.72;5035387;28;20123;-64
2023/03/06 01:59:37;;;;;;;0.20;0.20;;;;;;;10.19;74.26;99809.69;5035893;28;20033;-65
2023/03/06 02:02:05;;;;;;;0.20;0.20;;;;;;;10.15;74.71;99810.78;5035955;28;20059;-65
2023/03/06 02:04:34;;;;;;;0.20;0.20;;;;;;;10.07;75.05;99806.28;5036161;28;20029;-64
2023/03/06 02:07:03;;;;;;;0.30;0.30;;;;;;;10.05;75.28;99803.06;5035877;28;20570;-65
2023/03/06 02:09:30;;;;;;;0.30;0.30;;;;;;;10.22;73.60;99813.69;5053434;28;20075;-64
2023/03/06 02:11:56;;;;;;;0.20;0.20;;;;;;;10.13;75.96;99813.16;5035869;28;20471;-65
2023/03/06 02:14:21;;;;;;;0.20;0.20;;;;;;;10.07;77.12;99814.63;5035537;28;20051;-65
2023/03/06 02:16:47;;;;;;;0.20;0.20;;;;;;;10.05;79.08;99822.50;5035929;28;20023;-65
2023/03/06 02:19:56;;;;;;;0.20;0.20;;;;;;;10.03;80.09;99816.53;5035198;28;20025;-65
2023/03/06 02:22:25;;;;;;;0.20;0.20;;;;;;;9.95;80.98;99827.47;5015360;28;20048;-65
2023/03/06 02:25:08;;;;;;;0.30;0.30;;;;;;;10.11;83.42;99834.94;5035362;28;20033;-65
2023/03/06 02:27:36;;;;;;;0.20;0.20;;;;;;;10.27;86.99;99835.66;5053585;28;20028;-66
2023/03/06 02:30:06;;;;;;;0.20;0.20;;;;;;;10.27;90.98;99840.41;5035346;28;20111;-65
2023/03/06 02:32:32;;;;;;;0.20;0.20;;;;;;;10.09;94.44;99848.41;5038920;28;20024;-65
2023/03/06 02:34:57;;;;;;;0.20;0.20;;;;;;;9.92;96.83;99844.09;5039373;28;20533;-63
2023/03/06 02:37:25;;;;;;;0.20;0.20;;;;;;;9.87;98.74;99847.19;5039345;28;20029;-65
2023/03/06 02:39:57;;;;;;;0.20;0.20;;;;;;;9.76;100.00;99835.06;5039331;28;20044;-66
2023/03/06 02:42:27;;;;;;;0.25;0.25;;;;;;;9.67;100.00;99838.03;5039324;28;20124;-65
2023/03/06 02:44:54;;;;;;;0.22;0.22;;;;;;;9.58;100.00;99829.09;5056908;28;20028;-63
2023/03/06 02:47:20;;;;;;;0.20;0.20;;;;;;;9.51;100.00;99834.53;5039282;28;20499;-65
2023/03/06 02:49:46;;;;;;;0.20;0.20;;;;;;;9.45;100.00;99832.03;5039083;28;20025;-65
2023/03/06 02:52:11;;;;;;;0.20;0.20;;;;;;;9.40;100.00;99823.19;5039116;28;20091;-63
2023/03/06 02:54:37;;;;;;;0.30;0.30;;;;;;;9.25;100.00;99821.25;5038868;28;20029;-65
2023/03/06 02:57:02;;;;;;;0.20;0.20;;;;;;;9.21;100.00;99812.84;5039285;28;20021;-65
2023/03/06 02:59:28;;;;;;;0.20;0.20;;;;;;;9.11;100.00;99819.78;5038888;28;20032;-65
2023/03/06 03:01:53;;;;;;;0.20;0.20;;;;;;;9.07;100.00;99812.53;5038763;28;20028;-65
2023/03/06 03:04:19;;;;;;;0.30;0.30;;;;;;;9.06;100.00;99811.72;5056624;28;20036;-65
2023/03/06 03:06:44;;;;;;;0.30;0.30;;;;;;;9.14;100.00;99821.00;5038633;28;20039;-65
2023/03/06 03:09:10;;;;;;;0.20;0.20;;;;;;;9.20;100.00;99808.47;5039111;28;20036;-65
2023/03/06 03:11:36;;;;;;;0.20;0.20;;;;;;;9.13;100.00;99816.63;5039357;28;20379;-65
2023/03/06 03:14:04;;;;;;;0.20;0.20;;;;;;;9.28;99.77;99804.69;5038443;28;20111;-65
2023/03/06 03:16:29;;;;;;;0.30;0.30;;;;;;;9.18;98.99;99789.41;5038955;28;20057;-65
2023/03/06 03:18:55;;;;;;;0.20;0.20;;;;;;;9.21;98.74;99793.41;5038387;28;20021;-65
2023/03/06 03:21:20;;;;;;;0.20;0.20;;;;;;;9.25;97.27;99791.53;5038610;28;20037;-65
2023/03/06 03:23:46;;;;;;;0.28;0.28;;;;;;;9.23;95.46;99802.19;5039060;28;20467;-65
2023/03/06 03:26:14;;;;;;;0.30;0.30;;;;;;;9.22;92.74;99806.13;5038321;28;20033;-65
2023/03/06 03:28:43;;;;;;;0.30;0.30;;;;;;;9.22;91.23;99806.13;5038255;28;20052;-65
2023/03/06 03:31:10;;;;;;;0.25;0.25;;;;;;;9.28;90.89;99804.69;5038497;28;20037;-65
2023/03/06 03:33:35;;;;;;;0.30;0.30;;;;;;;9.33;90.50;99807.19;5038759;28;20029;-65
2023/03/06 03:36:03;;;;;;;0.20;0.20;;;;;;;9.37;91.70;99810.81;5037978;28;20509;-65
2023/03/06 03:38:29;;;;;;;0.30;0.30;;;;;;;9.30;91.08;99802.34;5038802;28;20024;-65
2023/03/06 03:40:54;;;;;;;0.20;0.20;;;;;;;9.11;91.48;99817.00;5037835;28;20472;-65
2023/03/06 03:43:20;;;;;;;0.20;0.20;;;;;;;9.05;92.50;99823.97;5038595;28;20025;-65
2023/03/06 03:45:45;;;;;;;0.20;0.20;;;;;;;8.88;94.98;99814.06;5037780;28;20041;-65
2023/03/06 03:48:11;;;;;;;0.30;0.30;;;;;;;8.82;100.00;99815.53;5037901;28;20043;-65
2023/03/06 03:50:36;;;;;;;0.20;0.20;;;;;;;8.61;100.00;99815.81;5037785;28;20037;-65
2023/03/06 03:53:02;;;;;;;0.20;0.20;;;;;;;8.45;100.00;99816.97;5038088;28;20024;-65
2023/03/06 03:55:30;;;;;;;0.20;0.20;;;;;;;8.28;100.00;99807.00;5037979;28;20459;-65
2023/03/06 03:57:55;;;;;;;0.30;0.30;;;;;;;8.15;100.00;99809.06;5037601;28;20396;-65
2023/03/06 04:00:21;;;;;;;0.30;0.30;;;;;;;8.12;100.00;99805.03;5037647;28;20063;-65
2023/03/06 04:02:46;;;;;;;0.30;0.30;;;;;;;8.14;100.00;99796.34;5038081;28;20031;-65
2023/03/06 04:05:14;;;;;;;0.20;0.20;;;;;;;7.96;100.00;99795.09;5037519;28;20502;-65
2023/03/06 04:07:41;;;;;;;0.30;0.30;;;;;;;8.11;100.00;99791.53;5038006;28;20082;-65
2023/03/06 04:10:08;;;;;;;0.20;0.20;;;;;;;7.96;100.00;99798.66;5055061;28;20078;-65
2023/03/06 04:12:34;;;;;;;0.30;0.30;;;;;;;7.98;100.00;99807.41;5037302;28;20033;-65
2023/03/06 04:15:00;;;;;;;0.30;0.30;;;;;;;7.94;100.00;99797.41;5037546;28;20475;-65
2023/03/06 04:17:26;;;;;;;0.20;0.20;;;;;;;8.00;100.00;99801.53;5037482;28;20087;-65
2023/03/06 04:19:52;;;;;;;0.20;0.20;;;;;;;8.01;100.00;99805.91;5037518;28;20067;-66
2023/03/06 04:22:17;;;;;;;0.20;0.20;;;;;;;8.09;100.00;99800.19;5037617;28;20036;-65
2023/03/06 04:24:43;;;;;;;0.30;0.30;;;;;;;8.14;100.00;99790.81;5037130;28;20486;-65
2023/03/06 04:27:10;;;;;;;0.20;0.20;;;;;;;8.18;100.00;99802.78;5037120;28;20060;-65
2023/03/06 04:29:36;;;;;;;0.30;0.30;;;;;;;8.20;100.00;99802.44;5037253;28;20483;-65
2023/03/06 04:32:01;;;;;;;0.30;0.30;;;;;;;8.19;100.00;99804.41;5037328;28;20112;-65
2023/03/06 04:34:27;;;;;;;0.20;0.20;;;;;;;8.22;100.00;99806.47;5037222;28;20036;-65
2023/03/06 04:36:55;;;;;;;0.20;0.20;;;;;;;8.25;100.00;99811.28;5037328;28;20024;-65
2023/03/06 04:39:22;;;;;;;0.30;0.30;;;;;;;8.22;100.00;99803.69;5037098;28;20024;-66
2023/03/06 04:41:48;;;;;;;0.20;0.20;;;;;;;8.17;100.00;99795.66;5036732;28;20033;-65
2023/03/06 04:44:13;;;;;;;0.20;0.20;;;;;;;8.19;100.00;99793.31;5036816;28;20066;-65
2023/03/06 04:46:41;;;;;;;0.30;0.30;;;;;;;8.23;100.00;99794.22;5036707;28;20033;-65
2023/03/06 04:49:06;;;;;;;0.20;0.20;;;;;;;8.23;100.00;99797.00;5036852;28;20029;-65
2023/03/06 04:51:34;;;;;;;0.30;0.30;;;;;;;8.25;100.00;99794.66;5036878;28;20609;-63
2023/03/06 04:54:02;;;;;;;0.30;0.30;;;;;;;8.29;100.00;99798.34;5036395;28;20025;-65
2023/03/06 04:56:28;;;;;;;0.20;0.20;;;;;;;8.31;100.00;99796.03;5036685;28;20029;-65
2023/03/06 04:58:54;;;;;;;0.20;0.20;;;;;;;8.33;100.00;99795.66;5036008;28;20080;-68
2023/03/06 05:01:19;;;;;;;0.30;0.30;;;;;;;8.27;100.00;99792.34;5036621;28;20039;-65
2023/03/06 05:03:45;;;;;;;0.20;0.20;;;;;;;8.23;100.00;99788.69;5036665;28;20102;-65
2023/03/06 05:06:11;;;;;;;0.20;0.20;;;;;;;8.27;100.00;99778.50;5036258;28;20075;-65
2023/03/06 05:08:36;;;;;;;0.20;0.20;;;;;;;8.17;100.00;99784.56;5036523;28;20116;-65
2023/03/06 05:11:02;;;;;;;0.20;0.20;;;;;;;8.17;100.00;99781.00;5036488;28;20036;-65
2023/03/06 05:13:28;;;;;;;0.20;0.20;;;;;;;8.17;100.00;99778.22;5036233;28;20067;-65
2023/03/06 05:15:53;;;;;;;0.20;0.20;;;;;;;8.17;100.00;99781.00;5036059;28;20028;-65
2023/03/06 05:18:20;;;;;;;0.20;0.20;;;;;;;8.20;100.00;99769.97;5036474;28;20114;-65
2023/03/06 05:20:45;;;;;;;0.20;0.20;;;;;;;8.14;100.00;99768.63;5036608;28;20029;-66
2023/03/06 05:23:11;;;;;;;0.20;0.20;;;;;;;8.11;100.00;99764.63;5036072;28;20112;-65
2023/03/06 05:25:39;;;;;;;0.30;0.30;;;;;;;7.98;100.00;99748.41;5036717;28;20070;-65
2023/03/06 05:28:05;;;;;;;0.30;0.30;;;;;;;8.11;100.00;99761.84;5036878;28;20033;-65
2023/03/06 05:30:31;;;;;;;0.30;0.30;;;;;;;8.17;100.00;99759.63;5036025;28;20025;-64
2023/03/06 05:32:59;;;;;;;0.28;0.28;;;;;;;8.12;100.00;99762.66;5036396;28;20087;-64
2023/03/06 05:35:25;;;;;;;0.20;0.20;;;;;;;8.06;100.00;99767.66;5037557;28;20041;-64
2023/03/06 05:37:50;;;;;;;0.22;0.22;;;;;;;8.03;100.00;99767.56;5036944;28;20525;-64
2023/03/06 05:40:17;;;;;;;0.20;0.20;;;;;;;8.05;100.00;99762.47;5037053;28;20029;-64
2023/03/06 05:42:42;;;;;;;0.20;0.20;;;;;;;8.21;100.00;99768.03;5037406;28;20500;-65
2023/03/06 05:45:08;;;;;;;0.20;0.20;;;;;;;8.17;100.00;99767.94;5038121;28;20025;-65
2023/03/06 05:47:35;;;;;;;0.20;0.20;;;;;;;8.18;100.00;99764.00;5037099;28;20096;-67
2023/03/06 05:50:00;;;;;;;0.30;0.30;;;;;;;8.21;100.00;99763.28;5038292;28;20025;-64
2023/03/06 05:52:26;;;;;;;0.20;0.20;;;;;;;8.49;100.00;99767.97;5036014;28;20095;-64
2023/03/06 05:54:53;;;;;;;0.20;0.20;;;;;;;8.74;100.00;99774.91;5036018;28;20052;-64
2023/03/06 05:57:20;;;;;;;0.20;0.20;;;;;;;8.96;100.00;99775.41;5035304;28;20044;-64
2023/03/06 05:59:46;;;;;;;0.20;0.20;;;;;;;9.21;100.00;99771.19;5035642;28;20029;-65
2023/03/06 06:02:11;;;;;;;0.30;0.30;;;;;;;9.48;100.00;99765.81;5036229;28;20082;-64
2023/03/06 06:04:37;;;;;;;0.20;0.20;;;;;;;9.58;100.00;99776.34;5035607;28;20467;-64
2023/03/06 06:07:08;;;;;;;0.20;0.20;;;;;;;9.57;100.00;99777.50;5038987;28;20029;-64
2023/03/06 06:09:33;;;;;;;0.30;0.30;;;;;;;9.43;100.00;99772.47;5039938;28;20392;-65
2023/03/06 06:12:02;;;;;;;0.20;0.20;;;;;;;9.42;100.00;99782.75;5039915;28;20033;-64
2023/03/06 06:14:32;;;;;;;0.20;0.20;;;;;;;9.43;100.00;99778.84;5039492;28;20074;-65
2023/03/06 06:16:57;;;;;;;0.20;0.20;;;;;;;9.50;100.00;99777.38;5039369;28;20571;-64
2023/03/06 06:19:23;;;;;;;0.20;0.20;;;;;;;9.53;100.00;99771.88;5039431;28;20056;-65
2023/03/06 06:21:51;;;;;;;0.20;0.20;;;;;;;9.58;100.00;99779.09;5039987;28;20068;-64
2023/03/06 06:24:19;;;;;;;0.20;0.20;;;;;;;9.63;100.00;99784.38;5039420;28;20037;-65
2023/03/06 06:26:46;;;;;;;0.20;0.20;;;;;;;9.76;100.00;99779.47;5039243;28;20028;-64
2023/03/06 06:29:12;;;;;;;0.30;0.30;;;;;;;10.17;100.00;99783.41;5039252;28;20030;-64
2023/03/06 06:31:38;;;;;;;0.20;0.20;;;;;;;10.86;100.00;99784.19;5039491;28;20032;-65
2023/03/06 06:34:04;;;;;;;0.20;0.20;;;;;;;10.75;100.00;99786.00;5039749;28;20029;-64
2023/03/06 06:36:33;;;;;;;0.20;0.20;;;;;;;10.62;100.00;99781.84;5039011;28;20112;-65
2023/03/06 06:38:58;;;;;;;0.20;0.20;;;;;;;10.48;100.00;99783.19;5039323;28;20025;-65
2023/03/06 06:41:25;;;;;;;0.20;0.20;;;;;;;10.63;100.00;99783.44;5039616;28;20527;-65
2023/03/06 06:43:50;;;;;;;0.20;0.20;;;;;;;11.06;100.00;99789.66;5038991;28;20021;-65
2023/03/06 06:46:16;;;;;;;0.30;0.30;;;;;;;12.16;98.40;99790.25;5038738;28;20032;-65
2023/03/06 06:48:47;;;;;;;0.20;0.20;;;;;;;12.88;91.79;99798.06;5038925;28;20030;-65
2023/03/06 06:51:13;;;;;;;0.20;0.20;;;;;;;12.61;89.73;99793.84;5056756;28;20108;-65
2023/03/06 06:53:38;;;;;;;0.20;0.20;;;;;;;13.06;88.90;99804.56;5039378;28;20095;-65
2023/03/06 06:56:04;;;;;;;0.30;0.30;;;;;;;13.22;86.78;99797.94;5038981;28;20029;-65
2023/03/06 06:58:29;;;;;;;0.20;0.20;;;;;;;13.22;85.06;99803.50;5038213;28;20051;-65
2023/03/06 07:00:55;;;;;;;0.20;0.20;;;;;;;13.62;83.85;99808.09;5038698;28;20087;-65
2023/03/06 07:03:22;;;;;;;0.20;0.20;;;;;;;13.70;79.16;99808.94;5038946;28;20119;-65
2023/03/06 07:05:55;;;;;;;0.20;0.20;;;;;;;13.35;79.79;99811.16;5038556;28;20025;-65
2023/03/06 07:08:21;;;;;;;0.20;0.20;;;;;;;12.56;77.80;99811.75;5038542;28;20471;-65
2023/03/06 07:10:49;;;;;;;0.20;0.20;;;;;;;12.03;81.74;99803.66;5038428;28;20032;-65
2023/03/06 07:13:14;;;;;;;0.20;0.20;;;;;;;11.71;84.29;99804.06;5038414;28;20526;-69
2023/03/06 07:15:40;;;;;;;0.20;0.20;;;;;;;11.59;87.11;99811.88;5038293;28;20021;-65
2023/03/06 07:18:05;;;;;;;0.20;0.20;;;;;;;11.32;88.13;99814.69;5037925;28;20040;-65
2023/03/06 07:20:31;;;;;;;0.30;0.30;;;;;;;11.40;89.41;99823.94;5038714;28;20032;-65
2023/03/06 07:22:56;;;;;;;0.20;0.20;;;;;;;11.52;90.49;99823.72;5038286;28;20383;-65
2023/03/06 07:25:22;;;;;;;0.20;0.20;;;;;;;11.55;88.46;99817.38;5037941;28;20079;-65
2023/03/06 07:27:56;;;;;;;0.20;0.20;;;;;;;11.82;88.80;99820.13;5038632;28;20186;-65
2023/03/06 07:30:22;;;;;;;0.20;0.20;;;;;;;12.07;87.31;99816.47;5056340;28;20368;-66
2023/03/06 07:32:51;;;;;;;0.20;0.20;;;;;;;12.50;84.80;99816.88;5037760;28;20036;-64
2023/03/06 07:35:17;;;;;;;0.20;0.20;;;;;;;12.52;84.34;99822.91;5038513;28;20033;-65
2023/03/06 07:37:42;;;;;;;0.20;0.20;;;;;;;12.48;83.00;99819.28;5037857;28;20538;-64
2023/03/06 07:40:11;;;;;;;0.20;0.20;;;;;;;12.58;82.11;99823.34;5038150;28;20029;-65
2023/03/06 07:42:37;;;;;;;0.20;0.20;;;;;;;12.67;82.27;99831.38;5055744;28;20029;-64
2023/03/06 07:45:03;;;;;;;0.20;0.20;;;;;;;12.77;80.81;99825.09;5038399;28;20036;-64
2023/03/06 07:47:29;;;;;;;0.20;0.20;;;;;;;12.84;81.57;99831.56;5038987;28;20052;-66
2023/03/06 07:49:55;;;;;;;0.20;0.20;;;;;;;13.03;80.88;99844.44;5039246;28;20533;-65
2023/03/06 07:52:24;;;;;;;0.20;0.20;;;;;;;13.35;77.87;99838.31;5037943;28;20061;-66
2023/03/06 07:54:50;;;;;;;0.20;0.20;;;;;;;12.98;79.45;99842.00;5038616;28;20024;-65
2023/03/06 07:57:15;;;;;;;0.20;0.20;;;;;;;13.59;78.16;99843.25;5037535;28;20553;-65
2023/03/06 07:59:41;;;;;;;0.20;0.20;;;;;;;14.27;75.83;99839.88;5038349;28;20025;-65
2023/03/06 08:02:08;;;;;;;0.20;0.20;;;;;;;14.21;74.60;99833.06;5038584;28;20032;-66
2023/03/06 08:04:34;;;;;;;0.20;0.20;;;;;;;14.83;72.12;99835.59;5038206;28;20029;-65
2023/03/06 08:06:59;;;;;;;0.20;0.20;;;;;;;15.00;69.46;99837.59;5038898;28;20033;-66
2023/03/06 08:09:25;;;;;;;0.20;0.20;;;;;;;15.52;67.13;99840.72;5040307;28;20139;-65
2023/03/06 08:11:51;;;;;;;0.20;0.20;;;;;;;15.29;66.27;99834.78;5042184;28;20417;-65
2023/03/06 08:14:16;;;;;;;0.20;0.20;;;;;;;15.35;65.25;99839.56;5037214;28;20090;-65
2023/03/06 08:16:42;;;;;;;0.20;0.20;;;;;;;15.05;64.73;99842.78;5037191;28;20078;-65
2023/03/06 08:19:08;;;;;;;0.20;0.20;;;;;;;14.54;64.99;99845.97;5037230;28;20033;-65
2023/03/06 08:21:33;;;;;;;0.20;0.20;;;;;;;15.01;64.85;99841.97;5037226;28;20037;-65
2023/03/06 08:23:59;;;;;;;0.20;0.20;;;;;;;14.72;64.83;99832.00;5037330;28;20036;-65
2023/03/06 08:26:30;;;;;;;0.20;0.20;;;;;;;14.48;68.76;99836.34;5037114;28;20364;-65
2023/03/06 08:28:57;;;;;;;0.20;0.20;;;;;;;14.72;66.88;99830.00;5036522;28;20021;-64
2023/03/06 08:31:41;;;;;;;0.20;0.20;;;;;;;14.79;68.56;99829.19;5037219;28;20032;-66
2023/03/06 08:34:13;;;;;;;0.22;0.22;;;;;;;15.13;66.15;99833.19;5038347;28;20131;-65
2023/03/06 08:36:39;;;;;;;0.20;0.20;;;;;;;15.31;63.18;99827.53;5037991;28;20486;-65
2023/03/06 08:39:05;;;;;;;0.20;0.20;;;;;;;14.84;68.12;99828.78;5036791;28;20025;-65
2023/03/06 08:41:31;;;;;;;0.20;0.20;;;;;;;14.17;68.05;99833.09;5037071;28;20115;-65
2023/03/06 08:43:57;;;;;;;0.20;0.20;;;;;;;14.66;68.10;99837.19;5036961;28;20547;-65
2023/03/06 08:46:25;;;;;;;0.20;0.20;;;;;;;14.38;68.29;99837.91;5036615;28;20112;-65
2023/03/06 08:48:51;;;;;;;0.20;0.20;;;;;;;14.50;69.27;99845.97;5036610;28;20059;-65
2023/03/06 08:51:17;;;;;;;0.20;0.20;;;;;;;14.36;68.47;99837.50;5036879;28;20043;-65
2023/03/06 08:53:43;;;;;;;0.20;0.20;;;;;;;14.65;69.79;99838.41;5037150;28;20024;-65
2023/03/06 08:56:19;;;;;;;0.20;0.20;;;;;;;14.77;68.00;99840.81;5036459;28;20463;-65
2023/03/06 08:58:45;;;;;;;0.20;0.20;;;;;;;15.04;65.21;99841.19;5035893;28;20084;-65
2023/03/06 09:01:23;;;;;;;0.20;0.20;;;;;;;15.30;66.14;99837.16;5036445;28;20024;-65
2023/03/06 09:03:50;;;;;;;0.20;0.20;;;;;;;15.02;64.53;99826.78;5036534;28;20032;-65
2023/03/06 09:06:16;;;;;;;0.20;0.20;;;;;;;15.07;64.95;99839.56;5036584;28;20382;-65
2023/03/06 09:08:43;;;;;;;0.20;0.20;;;;;;;15.26;64.53;99835.56;5036567;28;20084;-65
2023/03/06 09:11:10;;;;;;;0.20;0.20;;;;;;;14.81;66.65;99838.00;5036818;28;20348;-64
2023/03/06 09:13:36;;;;;;;0.20;0.20;;;;;;;15.03;66.16;99834.00;5036150;28;20078;-67
2023/03/06 09:16:01;;;;;;;0.20;0.20;;;;;;;15.51;64.34;99836.31;5036564;28;20029;-65
2023/03/06 09:18:28;;;;;;;0.20;0.20;;;;;;;15.81;61.64;99830.22;5036358;28;20035;-65
2023/03/06 09:20:54;;;;;;;0.20;0.20;;;;;;;15.50;62.94;99828.28;5036426;28;20079;-65
2023/03/06 09:23:20;;;;;;;0.20;0.20;;;;;;;15.73;62.54;99833.47;5036318;28;20502;-65
2023/03/06 09:25:54;;;;;;;0.20;0.20;;;;;;;16.08;62.22;99824.88;5036270;28;20028;-64
2023/03/06 09:28:22;;;;;;;0.20;0.20;;;;;;;16.94;55.83;99825.13;5036227;28;20147;-65
2023/03/06 09:30:48;;;;;;;0.20;0.20;;;;;;;16.98;57.47;99813.84;5035904;28;20033;-65
2023/03/06 09:33:15;;;;;;;0.20;0.20;;;;;;;16.85;57.36;99821.19;5035910;28;20025;-64
2023/03/06 09:35:54;;;;;;;0.20;0.20;;;;;;;17.20;56.43;99823.66;5036416;28;20028;-64
2023/03/06 09:38:24;;;;;;;0.20;0.20;;;;;;;17.71;53.82;99818.31;5035648;28;20067;-65
2023/03/06 09:41:14;;;;;;;0.20;0.20;;;;;;;17.01;56.32;99813.81;5036028;28;20028;-65
2023/03/06 09:43:44;;;;;;;0.20;0.20;;;;;;;18.14;53.35;99815.78;5035713;28;20028;-65
2023/03/06 09:46:47;;;;;;;0.20;0.20;;;;;;;18.94;50.64;99814.16;5035627;28;20499;-65
2023/03/06 09:49:22;;;;;;;0.20;0.20;;;;;;;19.07;48.88;99822.81;5035509;28;20525;-66
2023/03/06 09:51:56;;;;;;;0.20;0.20;;;;;;;18.03;49.64;99809.50;5035197;28;20055;-67
2023/03/06 09:54:36;;;;;;;0.20;0.20;;;;;;;17.83;49.30;99817.78;5035364;28;20064;-65
2023/03/06 09:57:02;;;;;;;0.20;0.20;;;;;;;18.47;46.79;99816.09;5035836;28;20056;-65
2023/03/06 09:59:28;;;;;;;0.20;0.20;;;;;;;16.94;50.50;99819.50;5035477;28;20025;-65
2023/03/06 10:02:17;;;;;;;0.20;0.20;;;;;;;18.37;48.22;99819.88;5035836;28;20029;-64
2023/03/06 10:04:48;;;;;;;0.20;0.20;;;;;;;18.06;49.46;99820.72;5034702;28;20033;-64
2023/03/06 10:07:51;;;;;;;0.20;0.20;;;;;;;18.41;48.47;99812.16;5035399;28;20039;-65
2023/03/06 10:10:20;;;;;;;0.20;0.20;;;;;;;17.25;50.60;99811.97;5005507;28;20036;-66
2023/03/06 10:13:16;;;;;;;0.20;0.20;;;;;;;16.92;50.26;99816.31;5035510;28;20032;-66
2023/03/06 10:15:45;;;;;;;0.20;0.20;;;;;;;16.55;52.88;99814.16;5035710;28;20490;-66
2023/03/06 10:18:11;;;;;;;0.20;0.20;;;;;;;16.52;53.38;99809.38;5035743;28;20033;-66
2023/03/06 10:20:44;;;;;;;0.20;0.20;;;;;;;16.19;53.75;99807.97;5053333;28;20406;-66
2023/03/06 10:23:45;;;;;;;0.20;0.20;;;;;;;15.48;57.65;99825.09;5035746;28;20033;-66
2023/03/06 10:26:24;;;;;;;0.20;0.20;;;;;;;13.83;63.30;99829.75;5035384;28;20479;-65
2023/03/06 10:28:59;;;;;;;0.20;0.20;;;;;;;13.26;68.44;99844.25;5036215;28;20025;-65
2023/03/06 10:31:27;;;;;;;0.30;0.30;;;;;;;13.21;70.28;99854.94;5035674;28;20095;-65
2023/03/06 10:34:03;;;;;;;0.20;0.20;;;;;;;12.91;72.55;99858.72;5035580;28;20457;-65
2023/03/06 10:36:28;;;;;;;0.20;0.20;;;;;;;12.71;75.92;99851.75;5035477;28;20107;-65
2023/03/06 10:38:56;;;;;;;0.20;0.20;;;;;;;12.51;80.38;99857.53;5035288;28;20083;-65
2023/03/06 10:41:34;;;;;;;0.22;0.22;;;;;;;12.35;84.50;99870.13;5035271;28;20124;-65
2023/03/06 10:43:59;;;;;;;0.20;0.20;;;;;;;12.00;87.56;99844.28;5035446;28;20549;-65
2023/03/06 10:46:57;;;;;;;0.20;0.20;;;;;;;12.09;90.01;99845.94;5035258;28;20029;-65
2023/03/06 10:49:36;;;;;;;0.30;0.30;;;;;;;12.00;91.83;99855.44;4992292;28;20045;-65
2023/03/06 10:52:13;;;;;;;0.30;0.30;;;;;;;12.12;93.40;99856.34;5036390;28;20033;-65
2023/03/06 10:54:42;;;;;;;0.30;0.30;;;;;;;11.94;93.41;99848.59;5039619;28;20044;-65
2023/03/06 10:57:18;;;;;;;0.20;0.20;;;;;;;11.79;94.25;99799.38;5038721;28;20361;-65
2023/03/06 10:59:59;;;;;;;0.30;0.30;;;;;;;11.91;95.41;99846.53;5039262;28;20490;-65
2023/03/06 11:02:39;;;;;;;0.30;0.30;;;;;;;11.88;95.65;99836.16;5056798;28;20120;-65
2023/03/06 11:05:16;;;;;;;0.20;0.20;;;;;;;11.93;96.29;99843.38;5056464;28;20387;-65
2023/03/06 11:07:56;;;;;;;0.20;0.20;;;;;;;11.65;96.77;99838.22;5038508;28;20044;-65
2023/03/06 11:10:23;;;;;;;0.20;0.20;;;;;;;11.79;96.86;99838.41;5038526;28;20029;-66
2023/03/06 11:13:06;;;;;;;0.20;0.20;;;;;;;11.65;96.96;99827.88;5038678;28;20029;-65
2023/03/06 11:15:32;;;;;;;0.20;0.20;;;;;;;11.85;97.09;99831.34;5056788;28;20059;-65
2023/03/06 11:18:04;;;;;;;0.20;0.20;;;;;;;11.82;96.94;99823.72;5038966;28;20090;-65
2023/03/06 11:20:50;;;;;;;0.20;0.20;;;;;;;11.91;96.53;99815.06;5039069;28;20032;-65
2023/03/06 11:23:34;;;;;;;0.20;0.20;;;;;;;11.87;94.62;99795.50;5038485;28;20174;-65
2023/03/06 11:26:02;;;;;;;;;;;;;;;12.06;95.70;99803.69;5039467;28;20029;-65
2023/03/06 11:28:33;;;;;;;0.20;0.20;;;;;;;12.26;94.91;99797.94;5038498;28;20374;-65
2023/03/06 11:31:14;;;;;;;0.20;0.20;;;;;;;12.45;94.80;99775.38;5038791;28;20032;-65
2023/03/06 11:33:50;;;;;;;0.20;0.20;;;;;;;12.89;93.18;99796.06;5038257;28;20021;-65
2023/03/06 11:36:42;;;;;;;0.20;0.20;;;;;;;13.17;90.85;99793.47;5038518;28;20041;-65
2023/03/06 11:39:39;;;;;;;0.20;0.20;;;;;;;13.44;88.09;99791.25;5038430;28;20410;-65
2023/03/06 11:42:19;;;;;;;0.20;0.20;;;;;;;13.91;87.42;99781.06;5038173;28;20025;-65